sensor_id;sensor_type;location;lat;lon;timestamp;P1;durP1;ratioP1;P2;durP2;ratioP2
30462;SDS011;17256;43.618;25.336;2023-03-24T05:04:31;38.90;;;34.93;;
30462;SDS011;17256;43.618;25.336;2023-03-24T05:07:09;58.07;;;51.80;;
30462;SDS011;17256;43.618;25.336;2023-03-24T05:09:35;56.27;;;50.77;;
30462;SDS011;17256;43.618;25.336;2023-03-24T05:12:02;56.23;;;50.73;;
30462;SDS011;17256;43.618;25.336;2023-03-24T05:14:44;33.00;;;29.70;;
30462;SDS011;17256;43.618;25.336;2023-03-24T05:17:10;28.83;;;25.97;;
30462;SDS011;17256;43.618;25.336;2023-03-24T05:19:37;26.93;;;24.03;;
30462;SDS011;17256;43.618;25.336;2023-03-24T05:22:06;25.60;;;21.73;;
30462;SDS011;17256;43.618;25.336;2023-03-24T05:24:32;27.00;;;23.43;;
30462;SDS011;17256;43.618;25.336;2023-03-24T05:35:43;24.63;;;20.30;;
30462;SDS011;17256;43.618;25.336;2023-03-24T05:44:42;20.97;;;18.90;;
30462;SDS011;17256;43.618;25.336;2023-03-24T05:55:43;22.40;;;20.10;;
30462;SDS011;17256;43.618;25.336;2023-03-24T05:58:35;27.60;;;19.83;;
30462;SDS011;17256;43.618;25.336;2023-03-24T06:01:07;21.07;;;18.97;;
30462;SDS011;17256;43.618;25.336;2023-03-24T06:03:39;23.63;;;21.27;;
30462;SDS011;17256;43.618;25.336;2023-03-24T06:06:19;21.57;;;19.57;;
30462;SDS011;17256;43.618;25.336;2023-03-24T06:11:59;22.53;;;20.20;;
30462;SDS011;17256;43.618;25.336;2023-03-24T06:14:33;25.10;;;22.40;;
30462;SDS011;17256;43.618;25.336;2023-03-24T06:17:08;23.13;;;19.30;;
30462;SDS011;17256;43.618;25.336;2023-03-24T06:19:41;20.00;;;17.90;;
30462;SDS011;17256;43.618;25.336;2023-03-24T06:22:46;20.67;;;17.80;;
30462;SDS011;17256;43.618;25.336;2023-03-24T06:25:31;20.80;;;18.30;;
30462;SDS011;17256;43.618;25.336;2023-03-24T06:28:12;28.90;;;23.63;;
30462;SDS011;17256;43.618;25.336;2023-03-24T07:15:31;46.27;;;38.27;;
30462;SDS011;17256;43.618;25.336;2023-03-24T07:17:58;35.20;;;31.57;;
30462;SDS011;17256;43.618;25.336;2023-03-24T07:23:12;42.17;;;37.77;;
30462;SDS011;17256;43.618;25.336;2023-03-24T07:25:44;42.50;;;36.63;;
30462;SDS011;17256;43.618;25.336;2023-03-24T07:28:24;43.73;;;36.50;;
30462;SDS011;17256;43.618;25.336;2023-03-24T07:30:51;46.83;;;42.10;;
30462;SDS011;17256;43.618;25.336;2023-03-24T07:33:18;46.50;;;41.60;;
30462;SDS011;17256;43.618;25.336;2023-03-24T07:35:45;44.43;;;38.07;;
30462;SDS011;17256;43.618;25.336;2023-03-24T07:38:17;41.73;;;37.23;;
30462;SDS011;17256;43.618;25.336;2023-03-24T07:40:45;40.00;;;35.77;;
30462;SDS011;17256;43.618;25.336;2023-03-24T07:43:11;36.90;;;33.07;;
30462;SDS011;17256;43.618;25.336;2023-03-24T07:46:01;40.10;;;34.67;;
30462;SDS011;17256;43.618;25.336;2023-03-24T07:48:38;37.10;;;32.33;;
30462;SDS011;17256;43.618;25.336;2023-03-24T07:51:11;34.20;;;30.63;;
30462;SDS011;17256;43.618;25.336;2023-03-24T07:53:48;32.20;;;28.80;;
30462;SDS011;17256;43.618;25.336;2023-03-24T07:56:44;33.17;;;30.03;;
30462;SDS011;17256;43.618;25.336;2023-03-24T07:59:34;35.97;;;30.43;;
30462;SDS011;17256;43.618;25.336;2023-03-24T08:02:05;32.83;;;29.33;;
30462;SDS011;17256;43.618;25.336;2023-03-24T08:35:59;20.40;;;18.13;;
30462;SDS011;17256;43.618;25.336;2023-03-24T08:38:33;21.10;;;17.43;;
30462;SDS011;17256;43.618;25.336;2023-03-24T08:44:01;22.93;;;18.87;;
30462;SDS011;17256;43.618;25.336;2023-03-24T08:46:35;21.57;;;15.30;;
30462;SDS011;17256;43.618;25.336;2023-03-24T08:49:04;24.13;;;16.03;;
30462;SDS011;17256;43.618;25.336;2023-03-24T08:51:33;18.33;;;14.63;;
30462;SDS011;17256;43.618;25.336;2023-03-24T08:54:05;19.77;;;15.20;;
30462;SDS011;17256;43.618;25.336;2023-03-24T08:56:31;17.53;;;15.53;;
30462;SDS011;17256;43.618;25.336;2023-03-24T08:59:06;19.73;;;16.30;;
30462;SDS011;17256;43.618;25.336;2023-03-24T09:01:32;17.20;;;14.90;;
30462;SDS011;17256;43.618;25.336;2023-03-24T09:03:59;17.17;;;14.33;;
30462;SDS011;17256;43.618;25.336;2023-03-24T09:06:28;16.37;;;14.77;;
30462;SDS011;17256;43.618;25.336;2023-03-24T09:08:56;16.00;;;13.67;;
30462;SDS011;17256;43.618;25.336;2023-03-24T09:11:25;17.10;;;15.30;;
30462;SDS011;17256;43.618;25.336;2023-03-24T09:17:06;14.63;;;13.17;;
30462;SDS011;17256;43.618;25.336;2023-03-24T09:19:32;15.17;;;13.67;;
30462;SDS011;17256;43.618;25.336;2023-03-24T09:24:48;16.20;;;13.47;;
30462;SDS011;17256;43.618;25.336;2023-03-24T09:27:39;13.17;;;11.83;;
30462;SDS011;17256;43.618;25.336;2023-03-24T09:32:52;12.10;;;10.77;;
30462;SDS011;17256;43.618;25.336;2023-03-24T09:35:27;11.00;;;10.00;;
30462;SDS011;17256;43.618;25.336;2023-03-24T09:37:59;11.07;;;9.83;;
30462;SDS011;17256;43.618;25.336;2023-03-24T09:40:29;10.23;;;8.53;;
30462;SDS011;17256;43.618;25.336;2023-03-24T09:43:07;11.00;;;9.30;;
30462;SDS011;17256;43.618;25.336;2023-03-24T09:45:36;10.47;;;9.33;;
30462;SDS011;17256;43.618;25.336;2023-03-24T09:48:17;9.20;;;8.37;;
30462;SDS011;17256;43.618;25.336;2023-03-24T09:51:09;9.87;;;8.90;;
30462;SDS011;17256;43.618;25.336;2023-03-24T09:53:49;11.03;;;10.03;;
30462;SDS011;17256;43.618;25.336;2023-03-24T09:56:36;8.67;;;7.73;;
30462;SDS011;17256;43.618;25.336;2023-03-24T10:01:40;8.63;;;7.83;;
30462;SDS011;17256;43.618;25.336;2023-03-24T10:04:09;8.60;;;7.57;;
30462;SDS011;17256;43.618;25.336;2023-03-24T10:13:17;7.43;;;6.83;;
30462;SDS011;17256;43.618;25.336;2023-03-24T10:15:51;7.17;;;6.47;;
30462;SDS011;17256;43.618;25.336;2023-03-24T10:31:36;7.03;;;6.43;;
30462;SDS011;17256;43.618;25.336;2023-03-24T10:34:09;6.67;;;6.10;;
30462;SDS011;17256;43.618;25.336;2023-03-24T10:36:37;7.00;;;6.37;;
30462;SDS011;17256;43.618;25.336;2023-03-24T10:39:16;5.90;;;5.20;;
30462;SDS011;17256;43.618;25.336;2023-03-24T10:41:42;6.10;;;5.60;;
30462;SDS011;17256;43.618;25.336;2023-03-24T10:44:08;6.00;;;5.50;;
30462;SDS011;17256;43.618;25.336;2023-03-24T10:46:41;6.70;;;6.10;;
30462;SDS011;17256;43.618;25.336;2023-03-24T10:51:37;9.03;;;8.17;;
30462;SDS011;17256;43.618;25.336;2023-03-24T10:54:13;7.43;;;6.60;;
30462;SDS011;17256;43.618;25.336;2023-03-24T11:05:40;7.63;;;6.93;;
30462;SDS011;17256;43.618;25.336;2023-03-24T11:10:54;5.97;;;5.47;;
30462;SDS011;17256;43.618;25.336;2023-03-24T11:13:31;6.77;;;5.43;;
30462;SDS011;17256;43.618;25.336;2023-03-24T11:16:11;6.17;;;5.00;;
30462;SDS011;17256;43.618;25.336;2023-03-24T11:18:56;5.90;;;5.40;;
30462;SDS011;17256;43.618;25.336;2023-03-24T11:21:36;5.57;;;5.10;;
30462;SDS011;17256;43.618;25.336;2023-03-24T11:24:03;6.37;;;5.57;;
30462;SDS011;17256;43.618;25.336;2023-03-24T11:26:36;5.50;;;5.10;;
30462;SDS011;17256;43.618;25.336;2023-03-24T11:29:07;7.37;;;6.77;;
30462;SDS011;17256;43.618;25.336;2023-03-24T11:32:14;7.17;;;5.97;;
30462;SDS011;17256;43.618;25.336;2023-03-24T11:34:39;5.53;;;5.03;;
30462;SDS011;17256;43.618;25.336;2023-03-24T11:46:42;6.87;;;5.60;;
30462;SDS011;17256;43.618;25.336;2023-03-24T11:49:20;6.20;;;5.60;;
30462;SDS011;17256;43.618;25.336;2023-03-24T11:55:54;5.10;;;4.70;;
30462;SDS011;17256;43.618;25.336;2023-03-24T11:58:46;6.13;;;5.37;;
30462;SDS011;17256;43.618;25.336;2023-03-24T12:12:00;8.77;;;7.87;;
30462;SDS011;17256;43.618;25.336;2023-03-24T12:17:44;9.60;;;8.10;;
30462;SDS011;17256;43.618;25.336;2023-03-24T12:23:41;10.23;;;8.37;;
30462;SDS011;17256;43.618;25.336;2023-03-24T12:26:32;7.63;;;6.93;;
30462;SDS011;17256;43.618;25.336;2023-03-24T12:29:24;7.73;;;7.03;;
30462;SDS011;17256;43.618;25.336;2023-03-24T12:46:38;4.67;;;3.80;;
30462;SDS011;17256;43.618;25.336;2023-03-24T12:53:57;4.53;;;3.97;;
30462;SDS011;17256;43.618;25.336;2023-03-24T12:56:14;4.27;;;3.87;;
30462;SDS011;17256;43.618;25.336;2023-03-24T12:58:48;6.87;;;4.73;;
30462;SDS011;17256;43.618;25.336;2023-03-24T13:01:30;4.60;;;4.20;;
30462;SDS011;17256;43.618;25.336;2023-03-24T13:08:24;5.83;;;3.77;;
30462;SDS011;17256;43.618;25.336;2023-03-24T13:11:14;3.47;;;3.03;;
30462;SDS011;17256;43.618;25.336;2023-03-24T13:13:45;3.43;;;3.13;;
30462;SDS011;17256;43.618;25.336;2023-03-24T13:16:21;3.67;;;3.37;;
30462;SDS011;17256;43.618;25.336;2023-03-24T13:18:56;3.50;;;3.20;;
30462;SDS011;17256;43.618;25.336;2023-03-24T13:21:25;4.80;;;4.30;;
30462;SDS011;17256;43.618;25.336;2023-03-24T13:23:58;4.40;;;4.00;;
30462;SDS011;17256;43.618;25.336;2023-03-24T13:49:21;3.20;;;2.90;;
30462;SDS011;17256;43.618;25.336;2023-03-24T13:52:50;9.87;;;8.23;;
30462;SDS011;17256;43.618;25.336;2023-03-24T14:12:15;2.70;;;2.50;;
30462;SDS011;17256;43.618;25.336;2023-03-24T14:21:51;3.40;;;2.63;;
30462;SDS011;17256;43.618;25.336;2023-03-24T14:24:27;2.43;;;2.27;;
30462;SDS011;17256;43.618;25.336;2023-03-24T14:26:55;2.00;;;1.90;;
30462;SDS011;17256;43.618;25.336;2023-03-24T14:34:30;2.17;;;2.03;;
30462;SDS011;17256;43.618;25.336;2023-03-24T14:37:49;3.10;;;2.80;;
30462;SDS011;17256;43.618;25.336;2023-03-24T14:46:33;3.57;;;3.27;;
30462;SDS011;17256;43.618;25.336;2023-03-24T14:52:15;7.17;;;4.53;;
30462;SDS011;17256;43.618;25.336;2023-03-24T14:54:47;4.40;;;3.63;;
30462;SDS011;17256;43.618;25.336;2023-03-24T14:57:17;4.60;;;4.10;;
30462;SDS011;17256;43.618;25.336;2023-03-24T15:02:45;3.03;;;2.80;;
30462;SDS011;17256;43.618;25.336;2023-03-24T15:10:30;2.90;;;2.60;;
30462;SDS011;17256;43.618;25.336;2023-03-24T15:13:01;7.17;;;3.13;;
30462;SDS011;17256;43.618;25.336;2023-03-24T15:15:31;8.17;;;2.77;;
30462;SDS011;17256;43.618;25.336;2023-03-24T15:18:25;4.67;;;2.97;;
30462;SDS011;17256;43.618;25.336;2023-03-24T15:26:10;5.27;;;3.57;;
30462;SDS011;17256;43.618;25.336;2023-03-24T15:32:35;8.27;;;6.50;;
30462;SDS011;17256;43.618;25.336;2023-03-24T15:35:04;6.13;;;5.63;;
30462;SDS011;17256;43.618;25.336;2023-03-24T15:37:34;4.33;;;3.93;;
30462;SDS011;17256;43.618;25.336;2023-03-24T15:40:04;3.83;;;3.50;;
30462;SDS011;17256;43.618;25.336;2023-03-24T15:42:31;5.43;;;3.03;;
30462;SDS011;17256;43.618;25.336;2023-03-24T15:45:18;6.63;;;3.53;;
30462;SDS011;17256;43.618;25.336;2023-03-24T15:47:50;4.93;;;4.27;;
30462;SDS011;17256;43.618;25.336;2023-03-24T15:50:32;6.03;;;5.30;;
30462;SDS011;17256;43.618;25.336;2023-03-24T15:53:05;4.07;;;3.67;;
30462;SDS011;17256;43.618;25.336;2023-03-24T15:55:59;3.73;;;3.43;;
30462;SDS011;17256;43.618;25.336;2023-03-24T15:58:29;7.77;;;5.53;;
30462;SDS011;17256;43.618;25.336;2023-03-24T16:06:57;11.70;;;10.60;;
30462;SDS011;17256;43.618;25.336;2023-03-24T16:09:22;13.13;;;11.90;;
30462;SDS011;17256;43.618;25.336;2023-03-24T16:11:57;17.20;;;12.13;;
30462;SDS011;17256;43.618;25.336;2023-03-24T16:14:32;17.53;;;15.63;;
30462;SDS011;17256;43.618;25.336;2023-03-24T16:17:02;21.60;;;18.70;;
30462;SDS011;17256;43.618;25.336;2023-03-24T16:19:28;19.13;;;17.07;;
30462;SDS011;17256;43.618;25.336;2023-03-24T16:21:57;18.20;;;15.63;;
30462;SDS011;17256;43.618;25.336;2023-03-24T16:24:36;19.43;;;15.13;;
30462;SDS011;17256;43.618;25.336;2023-03-24T16:27:07;31.80;;;22.70;;
30462;SDS011;17256;43.618;25.336;2023-03-24T16:33:02;19.10;;;15.87;;
30462;SDS011;17256;43.618;25.336;2023-03-24T16:35:31;19.37;;;15.10;;
30462;SDS011;17256;43.618;25.336;2023-03-24T16:37:58;15.10;;;12.70;;
30462;SDS011;17256;43.618;25.336;2023-03-24T16:40:26;22.20;;;14.20;;
30462;SDS011;17256;43.618;25.336;2023-03-24T16:45:34;14.50;;;12.13;;
30462;SDS011;17256;43.618;25.336;2023-03-24T16:48:03;18.60;;;15.20;;
30462;SDS011;17256;43.618;25.336;2023-03-24T16:50:48;15.83;;;14.17;;
30462;SDS011;17256;43.618;25.336;2023-03-24T16:53:26;22.10;;;17.07;;
30462;SDS011;17256;43.618;25.336;2023-03-24T16:55:51;26.97;;;21.57;;
30462;SDS011;17256;43.618;25.336;2023-03-24T16:58:17;27.10;;;20.40;;
30462;SDS011;17256;43.618;25.336;2023-03-24T17:00:43;18.70;;;14.40;;
30462;SDS011;17256;43.618;25.336;2023-03-24T17:03:10;13.73;;;12.33;;
30462;SDS011;17256;43.618;25.336;2023-03-24T17:08:14;24.03;;;16.57;;
30462;SDS011;17256;43.618;25.336;2023-03-24T17:10:41;22.40;;;20.07;;
30462;SDS011;17256;43.618;25.336;2023-03-24T17:13:18;26.87;;;23.93;;
30462;SDS011;17256;43.618;25.336;2023-03-24T17:19:05;34.87;;;31.27;;
30462;SDS011;17256;43.618;25.336;2023-03-24T17:21:31;38.13;;;34.03;;
30462;SDS011;17256;43.618;25.336;2023-03-24T17:24:07;49.67;;;43.87;;
30462;SDS011;17256;43.618;25.336;2023-03-24T17:26:35;41.93;;;36.33;;
30462;SDS011;17256;43.618;25.336;2023-03-24T17:29:08;34.53;;;29.10;;
30462;SDS011;17256;43.618;25.336;2023-03-24T17:31:57;46.13;;;35.27;;
30462;SDS011;17256;43.618;25.336;2023-03-24T17:34:32;40.60;;;30.40;;
30462;SDS011;17256;43.618;25.336;2023-03-24T17:37:08;34.07;;;26.20;;
30462;SDS011;17256;43.618;25.336;2023-03-24T17:39:48;25.47;;;19.60;;
30462;SDS011;17256;43.618;25.336;2023-03-24T17:44:59;15.70;;;14.07;;
30462;SDS011;17256;43.618;25.336;2023-03-24T17:47:32;31.23;;;28.13;;
30462;SDS011;17256;43.618;25.336;2023-03-24T17:50:22;47.43;;;42.50;;
30462;SDS011;17256;43.618;25.336;2023-03-24T17:52:51;39.87;;;36.00;;
30462;SDS011;17256;43.618;25.336;2023-03-24T17:55:55;31.60;;;28.40;;
30462;SDS011;17256;43.618;25.336;2023-03-24T17:58:47;25.03;;;22.27;;
30462;SDS011;17256;43.618;25.336;2023-03-24T18:01:38;21.33;;;19.03;;
30462;SDS011;17256;43.618;25.336;2023-03-24T18:04:11;19.17;;;17.17;;
30462;SDS011;17256;43.618;25.336;2023-03-24T18:06:41;20.63;;;18.53;;
30462;SDS011;17256;43.618;25.336;2023-03-24T18:09:15;23.23;;;18.70;;
30462;SDS011;17256;43.618;25.336;2023-03-24T18:11:53;20.67;;;18.53;;
30462;SDS011;17256;43.618;25.336;2023-03-24T18:14:37;31.03;;;24.33;;
30462;SDS011;17256;43.618;25.336;2023-03-24T18:17:07;42.73;;;33.10;;
30462;SDS011;17256;43.618;25.336;2023-03-24T18:19:33;39.43;;;31.50;;
30462;SDS011;17256;43.618;25.336;2023-03-24T18:21:59;29.67;;;22.50;;
30462;SDS011;17256;43.618;25.336;2023-03-24T18:24:33;25.37;;;17.33;;
30462;SDS011;17256;43.618;25.336;2023-03-24T18:26:58;20.20;;;17.83;;
30462;SDS011;17256;43.618;25.336;2023-03-24T18:29:47;31.67;;;24.53;;
30462;SDS011;17256;43.618;25.336;2023-03-24T18:32:12;27.73;;;21.07;;
30462;SDS011;17256;43.618;25.336;2023-03-24T18:34:38;27.30;;;22.30;;
30462;SDS011;17256;43.618;25.336;2023-03-24T18:40:14;22.70;;;20.13;;
30462;SDS011;17256;43.618;25.336;2023-03-24T18:42:42;38.40;;;27.10;;
30462;SDS011;17256;43.618;25.336;2023-03-24T18:45:08;43.90;;;30.33;;
30462;SDS011;17256;43.618;25.336;2023-03-24T18:47:41;37.10;;;27.60;;
30462;SDS011;17256;43.618;25.336;2023-03-24T18:50:13;35.43;;;26.23;;
30462;SDS011;17256;43.618;25.336;2023-03-24T18:52:46;34.73;;;27.57;;
30462;SDS011;17256;43.618;25.336;2023-03-24T18:55:11;41.50;;;30.37;;
30462;SDS011;17256;43.618;25.336;2023-03-24T18:57:38;36.80;;;28.00;;
30462;SDS011;17256;43.618;25.336;2023-03-24T19:00:20;37.47;;;29.03;;
30462;SDS011;17256;43.618;25.336;2023-03-24T19:05:41;25.03;;;21.53;;
30462;SDS011;17256;43.618;25.336;2023-03-24T19:08:07;21.60;;;16.87;;
30462;SDS011;17256;43.618;25.336;2023-03-24T19:10:33;17.57;;;14.43;;
30462;SDS011;17256;43.618;25.336;2023-03-24T19:13:05;18.17;;;14.17;;
30462;SDS011;17256;43.618;25.336;2023-03-24T19:15:35;17.43;;;15.63;;
30462;SDS011;17256;43.618;25.336;2023-03-24T19:18:12;16.70;;;13.43;;
30462;SDS011;17256;43.618;25.336;2023-03-24T19:20:39;18.40;;;15.13;;
30462;SDS011;17256;43.618;25.336;2023-03-24T19:23:06;21.07;;;16.73;;
30462;SDS011;17256;43.618;25.336;2023-03-24T19:25:35;19.50;;;15.87;;
30462;SDS011;17256;43.618;25.336;2023-03-24T19:30:58;40.53;;;30.80;;
30462;SDS011;17256;43.618;25.336;2023-03-24T19:33:36;43.77;;;29.77;;
30462;SDS011;17256;43.618;25.336;2023-03-24T19:41:45;29.67;;;20.30;;
30462;SDS011;17256;43.618;25.336;2023-03-24T19:47:00;31.87;;;21.77;;
30462;SDS011;17256;43.618;25.336;2023-03-24T19:49:31;42.57;;;25.87;;
30462;SDS011;17256;43.618;25.336;2023-03-24T19:52:05;25.93;;;19.87;;
30462;SDS011;17256;43.618;25.336;2023-03-24T19:54:30;21.80;;;16.97;;
30462;SDS011;17256;43.618;25.336;2023-03-24T19:56:56;23.77;;;16.93;;
30462;SDS011;17256;43.618;25.336;2023-03-24T20:02:23;25.30;;;19.87;;
30462;SDS011;17256;43.618;25.336;2023-03-24T20:04:50;32.37;;;22.07;;
30462;SDS011;17256;43.618;25.336;2023-03-24T20:10:18;35.47;;;28.03;;
30462;SDS011;17256;43.618;25.336;2023-03-24T20:12:47;31.60;;;26.93;;
30462;SDS011;17256;43.618;25.336;2023-03-24T20:15:13;25.73;;;21.97;;
30462;SDS011;17256;43.618;25.336;2023-03-24T20:17:56;21.07;;;17.63;;
30462;SDS011;17256;43.618;25.336;2023-03-24T20:20:28;20.73;;;18.27;;
30462;SDS011;17256;43.618;25.336;2023-03-24T20:22:53;19.83;;;17.27;;
30462;SDS011;17256;43.618;25.336;2023-03-24T20:25:23;18.93;;;16.30;;
30462;SDS011;17256;43.618;25.336;2023-03-24T20:28:01;16.00;;;14.30;;
30462;SDS011;17256;43.618;25.336;2023-03-24T20:30:28;15.07;;;13.47;;
30462;SDS011;17256;43.618;25.336;2023-03-24T20:32:55;13.50;;;12.10;;
30462;SDS011;17256;43.618;25.336;2023-03-24T20:35:32;13.60;;;11.53;;
30462;SDS011;17256;43.618;25.336;2023-03-24T20:38:08;13.20;;;11.00;;
30462;SDS011;17256;43.618;25.336;2023-03-24T20:40:33;12.23;;;10.67;;
30462;SDS011;17256;43.618;25.336;2023-03-24T20:42:59;16.80;;;13.97;;
30462;SDS011;17256;43.618;25.336;2023-03-24T20:45:33;19.80;;;15.87;;
30462;SDS011;17256;43.618;25.336;2023-03-24T20:47:58;22.93;;;17.87;;
30462;SDS011;17256;43.618;25.336;2023-03-24T20:50:24;21.33;;;16.63;;
30462;SDS011;17256;43.618;25.336;2023-03-24T20:52:50;16.17;;;14.33;;
30462;SDS011;17256;43.618;25.336;2023-03-24T20:55:15;17.53;;;13.27;;
30462;SDS011;17256;43.618;25.336;2023-03-24T20:57:41;14.30;;;12.00;;
30462;SDS011;17256;43.618;25.336;2023-03-24T21:02:40;12.17;;;10.97;;
30462;SDS011;17256;43.618;25.336;2023-03-24T21:05:06;16.43;;;11.63;;
30462;SDS011;17256;43.618;25.336;2023-03-24T21:07:38;18.03;;;12.90;;
30462;SDS011;17256;43.618;25.336;2023-03-24T21:10:07;12.23;;;9.97;;
30462;SDS011;17256;43.618;25.336;2023-03-24T21:12:33;10.80;;;8.37;;
30462;SDS011;17256;43.618;25.336;2023-03-24T21:15:08;8.57;;;7.77;;
30462;SDS011;17256;43.618;25.336;2023-03-24T21:17:36;9.20;;;8.30;;
30462;SDS011;17256;43.618;25.336;2023-03-24T21:20:02;9.10;;;7.87;;
30462;SDS011;17256;43.618;25.336;2023-03-24T21:22:35;8.97;;;8.07;;
30462;SDS011;17256;43.618;25.336;2023-03-24T21:25:22;12.83;;;9.67;;
30462;SDS011;17256;43.618;25.336;2023-03-24T21:28:23;10.27;;;8.63;;
30462;SDS011;17256;43.618;25.336;2023-03-24T21:31:30;13.13;;;9.90;;
30462;SDS011;17256;43.618;25.336;2023-03-24T21:38:09;9.10;;;8.20;;
30462;SDS011;17256;43.618;25.336;2023-03-24T21:40:43;10.30;;;9.20;;
30462;SDS011;17256;43.618;25.336;2023-03-24T21:50:07;9.07;;;8.17;;
30462;SDS011;17256;43.618;25.336;2023-03-24T21:56:51;10.90;;;8.73;;
30462;SDS011;17256;43.618;25.336;2023-03-24T22:11:37;16.20;;;11.93;;
30462;SDS011;17256;43.618;25.336;2023-03-24T23:40:07;9.23;;;8.33;;
30462;SDS011;17256;43.618;25.336;2023-03-24T23:43:50;12.43;;;9.77;;
30462;SDS011;17256;43.618;25.336;2023-03-24T23:49:45;12.50;;;11.03;;
30462;SDS011;17256;43.618;25.336;2023-03-24T23:52:45;13.17;;;10.30;;
30462;SDS011;17256;43.618;25.336;2023-03-24T23:55:22;12.43;;;11.00;;
30462;SDS011;17256;43.618;25.336;2023-03-24T23:58:36;14.33;;;12.83;;
